createdAt,value
2022-11-28T00:00:19.966Z,48.9
2022-11-28T00:05:19.969Z,49.0
2022-11-28T00:10:19.962Z,49.3
2022-11-28T00:15:19.993Z,49.8
2022-11-28T00:20:19.964Z,50.0
2022-11-28T00:25:21.028Z,50.1
2022-11-28T00:30:19.976Z,50.2
2022-11-28T00:35:17.017Z,50.4
2022-11-28T00:40:19.999Z,50.4
2022-11-28T00:45:20.019Z,50.5
2022-11-28T00:50:20.033Z,50.6
2022-11-28T00:55:20.008Z,50.7
2022-11-28T01:00:18.069Z,50.8
2022-11-28T01:05:17.042Z,50.9
2022-11-28T01:10:20.028Z,51.3
2022-11-28T01:15:19.994Z,51.4
2022-11-28T01:20:20.017Z,51.5
2022-11-28T01:25:20.000Z,51.6
2022-11-28T01:30:17.046Z,51.7
2022-11-28T01:35:18.232Z,51.9
2022-11-28T01:40:20.080Z,52.0
2022-11-28T01:45:20.032Z,52.2
2022-11-28T01:50:20.037Z,52.3
2022-11-28T01:55:17.031Z,52.5
2022-11-28T02:00:17.030Z,52.7
2022-11-28T02:05:21.189Z,53.2
2022-11-28T02:10:20.061Z,53.1
2022-11-28T02:15:20.034Z,53.2
2022-11-28T02:20:20.021Z,53.3
2022-11-28T02:25:20.037Z,53.6
2022-11-28T02:30:20.046Z,53.7
2022-11-28T02:35:20.025Z,53.9
2022-11-28T02:40:21.189Z,53.9
2022-11-28T02:45:20.067Z,54.0
2022-11-28T02:50:17.113Z,54.2
2022-11-28T02:55:20.049Z,54.3
2022-11-28T03:00:17.963Z,54.3
2022-11-28T03:05:16.856Z,54.3
2022-11-28T03:10:17.104Z,54.3
2022-11-28T03:15:18.262Z,54.3
2022-11-28T03:20:20.082Z,54.3
2022-11-28T03:25:20.020Z,54.4
2022-11-28T03:30:20.089Z,54.4
2022-11-28T03:35:20.088Z,54.5
2022-11-28T03:40:17.158Z,54.5
2022-11-28T03:45:17.158Z,54.6
2022-11-28T03:50:21.195Z,54.7
2022-11-28T03:55:20.141Z,54.8
2022-11-28T04:00:20.069Z,54.8
2022-11-28T04:05:17.111Z,54.8
2022-11-28T04:10:20.123Z,54.7
2022-11-28T04:15:20.097Z,54.7
2022-11-28T04:20:20.075Z,54.6
2022-11-28T04:25:18.134Z,54.9
2022-11-28T04:30:17.116Z,55.0
2022-11-28T04:35:20.123Z,55.1
2022-11-28T04:40:20.062Z,55.2
2022-11-28T04:45:20.129Z,55.3
2022-11-28T04:50:17.103Z,55.0
2022-11-28T04:55:17.136Z,54.9
2022-11-28T05:00:20.492Z,54.8
2022-11-28T05:05:19.345Z,54.7
2022-11-28T05:10:16.315Z,54.5
2022-11-28T05:15:19.430Z,54.2
2022-11-28T05:20:19.365Z,54.0
2022-11-28T05:25:19.357Z,53.8
2022-11-28T05:30:19.378Z,53.2
2022-11-28T05:35:17.549Z,53.0
2022-11-28T05:40:16.391Z,52.8
2022-11-28T05:45:19.407Z,52.4
2022-11-28T05:50:19.363Z,52.1
2022-11-28T05:55:19.355Z,51.6
2022-11-28T06:00:19.402Z,51.5
2022-11-28T06:05:40.937Z,51.1
2022-11-28T06:10:20.510Z,50.8
2022-11-28T06:15:19.373Z,50.8
2022-11-28T06:20:19.336Z,50.4
2022-11-28T06:25:19.354Z,50.1
2022-11-28T06:30:19.359Z,50.1
2022-11-28T06:35:16.417Z,49.8
2022-11-28T06:40:19.400Z,49.9
2022-11-28T06:45:20.524Z,49.8
2022-11-28T06:50:19.430Z,49.5
2022-11-28T06:55:16.403Z,49.5
2022-11-28T07:00:19.428Z,49.6
2022-11-28T07:05:19.572Z,49.2
2022-11-28T07:10:19.435Z,49.2
2022-11-28T07:15:16.477Z,49.1
2022-11-28T07:20:17.646Z,49.1
2022-11-28T07:25:19.402Z,49.1
2022-11-28T07:30:19.419Z,49.1
2022-11-28T07:35:19.426Z,49.0
2022-11-28T07:40:16.420Z,48.9
2022-11-28T07:45:19.458Z,48.9
2022-11-28T07:50:20.640Z,48.8
2022-11-28T07:55:19.390Z,48.7
2022-11-28T08:00:16.429Z,48.7
2022-11-28T08:05:19.449Z,48.6
2022-11-28T08:10:19.438Z,48.6
2022-11-28T08:15:19.476Z,48.6
2022-11-28T08:20:16.447Z,48.5
2022-11-28T08:25:20.557Z,48.0
2022-11-28T08:30:19.497Z,47.9
2022-11-28T08:35:19.448Z,47.8
2022-11-28T08:40:16.462Z,47.8
2022-11-28T08:45:19.488Z,47.8
2022-11-28T08:50:19.420Z,47.8
2022-11-28T08:55:25.030Z,47.7
2022-11-28T09:00:17.496Z,47.3
2022-11-28T09:05:16.287Z,47.2
2022-11-28T09:10:16.481Z,47.1
2022-11-28T09:15:19.492Z,47.1
2022-11-28T09:20:16.471Z,47.0
2022-11-28T09:25:19.448Z,46.9
2022-11-28T09:30:20.539Z,46.8
2022-11-28T09:35:19.519Z,46.7
2022-11-28T09:40:16.940Z,46.6
2022-11-28T09:45:19.511Z,46.5
2022-11-28T09:50:16.827Z,46.4
2022-11-28T09:55:19.498Z,46.4
2022-11-28T10:00:16.511Z,46.4
2022-11-28T10:05:17.570Z,46.3
2022-11-28T10:10:19.511Z,46.3
2022-11-28T10:15:19.584Z,46.3
2022-11-28T10:20:19.560Z,46.2
2022-11-28T10:25:16.481Z,46.2
2022-11-28T10:30:16.638Z,46.1
2022-11-28T10:35:25.179Z,46.0
2022-11-28T10:40:16.649Z,46.0
2022-11-28T10:45:16.502Z,45.9
2022-11-28T10:50:19.504Z,45.9
2022-11-28T10:55:19.526Z,45.9
2022-11-28T11:00:16.528Z,45.9
2022-11-28T11:05:16.506Z,46.1
2022-11-28T11:10:20.644Z,46.1
2022-11-28T11:15:19.585Z,46.1
2022-11-28T11:20:16.497Z,46.1
2022-11-28T11:25:19.485Z,46.1
2022-11-28T11:30:19.503Z,46.0
2022-11-28T11:35:16.547Z,46.0
2022-11-28T11:40:19.547Z,46.0
2022-11-28T11:45:20.694Z,45.9
2022-11-28T11:50:19.523Z,46.0
2022-11-28T11:55:16.643Z,45.9
2022-11-28T12:00:19.535Z,45.9
2022-11-28T12:05:19.571Z,45.9
2022-11-28T12:10:16.536Z,45.8
2022-11-28T12:15:16.571Z,45.8
2022-11-28T12:20:20.692Z,45.8
2022-11-28T12:25:19.572Z,45.7
2022-11-28T12:30:19.555Z,45.8
2022-11-28T12:35:16.605Z,45.8
2022-11-28T12:40:16.573Z,46.2
2022-11-28T12:45:19.623Z,45.9
2022-11-28T12:50:19.534Z,46.0
2022-11-28T12:55:20.609Z,46.1
2022-11-28T13:00:19.592Z,46.1
2022-11-28T13:05:19.537Z,46.2
2022-11-28T13:10:19.576Z,46.4
2022-11-28T13:15:19.578Z,46.5
2022-11-28T13:20:16.564Z,46.7
2022-11-28T13:25:16.612Z,46.5
2022-11-28T13:30:17.770Z,46.7
2022-11-28T13:35:16.599Z,46.6
2022-11-28T13:40:19.671Z,46.5
2022-11-28T13:45:16.475Z,46.1
2022-11-28T13:50:19.631Z,45.3
2022-11-28T13:55:19.634Z,45.3
2022-11-28T14:00:20.697Z,44.6
2022-11-28T14:05:21.494Z,44.5
2022-11-28T14:10:16.627Z,44.4
2022-11-28T14:15:16.635Z,43.9
2022-11-28T14:20:19.608Z,43.4
2022-11-28T14:25:16.632Z,43.2
2022-11-28T14:30:19.653Z,42.7
2022-11-28T14:35:20.800Z,42.2
2022-11-28T14:40:19.619Z,42.3
2022-11-28T14:45:19.644Z,42.0
2022-11-28T14:50:16.625Z,41.9
2022-11-28T14:55:16.622Z,41.9
2022-11-28T15:00:19.603Z,41.8
2022-11-28T15:05:19.678Z,41.7
2022-11-28T15:10:20.730Z,41.2
2022-11-28T15:15:19.586Z,40.0
2022-11-28T15:20:19.608Z,39.2
2022-11-28T15:25:19.597Z,38.7
2022-11-28T15:30:19.595Z,38.2
2022-11-28T15:35:16.686Z,37.9
2022-11-28T15:40:16.658Z,38.3
2022-11-28T15:45:20.767Z,37.9
2022-11-28T15:50:19.634Z,37.9
2022-11-28T15:55:19.639Z,37.8
2022-11-28T16:00:19.703Z,37.6
2022-11-28T16:05:19.632Z,37.7
2022-11-28T16:10:16.731Z,37.7
2022-11-28T16:15:16.692Z,37.7
2022-11-28T16:20:17.679Z,37.5
2022-11-28T16:25:19.669Z,37.5
2022-11-28T16:30:19.614Z,37.4
2022-11-28T16:35:16.703Z,37.7
2022-11-28T16:40:16.673Z,37.3
2022-11-28T16:45:16.657Z,37.1
2022-11-28T16:50:20.801Z,37.8
2022-11-28T16:55:19.672Z,37.5
2022-11-28T17:00:19.675Z,38.2
2022-11-28T17:05:19.635Z,37.7
2022-11-28T17:10:16.704Z,37.3
2022-11-28T17:15:16.690Z,37.4
2022-11-28T17:20:19.663Z,37.0
2022-11-28T17:25:20.867Z,36.6
2022-11-28T17:30:19.635Z,36.7
2022-11-28T17:35:19.690Z,37.0
2022-11-28T17:40:16.478Z,36.8
2022-11-28T17:45:16.654Z,36.9
2022-11-28T17:50:19.741Z,37.2
2022-11-28T17:55:19.678Z,37.0
2022-11-28T18:00:20.884Z,36.6
2022-11-28T18:05:19.667Z,36.2
2022-11-28T18:10:16.743Z,36.4
2022-11-28T18:15:16.692Z,36.2
2022-11-28T18:20:16.499Z,36.5
2022-11-28T18:25:19.708Z,36.2
2022-11-28T18:30:19.685Z,36.5
2022-11-28T18:35:17.743Z,36.1
2022-11-28T18:40:16.732Z,35.9
2022-11-28T18:45:19.716Z,36.1
2022-11-28T18:50:19.657Z,35.9
2022-11-28T18:55:19.725Z,35.9
2022-11-28T19:00:16.778Z,35.8
2022-11-28T19:05:16.763Z,35.8
2022-11-28T19:10:20.936Z,35.8
2022-11-28T19:15:19.736Z,35.7
2022-11-28T19:20:19.733Z,35.4
2022-11-28T19:25:16.813Z,35.4
2022-11-28T19:30:19.727Z,35.6
2022-11-28T19:35:19.705Z,35.7
2022-11-28T19:40:19.790Z,35.9
2022-11-28T19:45:17.924Z,35.6
2022-11-28T19:50:16.793Z,35.6
2022-11-28T19:55:19.733Z,35.6
2022-11-28T20:00:19.793Z,35.4
2022-11-28T20:05:19.756Z,35.3
2022-11-28T20:10:16.778Z,35.1
2022-11-28T20:15:20.982Z,35.5
2022-11-28T20:20:19.744Z,35.5
2022-11-28T20:25:21.172Z,35.4
2022-11-28T20:30:16.736Z,35.2
2022-11-28T20:35:19.783Z,34.9
2022-11-28T20:40:19.767Z,34.6
2022-11-28T20:45:19.789Z,34.5
2022-11-28T20:50:17.957Z,34.7
2022-11-28T20:55:16.836Z,34.5
2022-11-28T21:00:25.000Z,34.8
2022-11-28T21:05:19.770Z,34.7
2022-11-28T21:10:16.854Z,34.6
2022-11-28T21:15:19.749Z,34.8
2022-11-28T21:20:20.885Z,34.6
2022-11-28T21:25:19.806Z,34.3
2022-11-28T21:30:16.831Z,34.0
2022-11-28T21:35:16.812Z,33.7
2022-11-28T21:40:19.844Z,33.8
2022-11-28T21:45:19.899Z,33.7
2022-11-28T21:50:19.797Z,33.8
2022-11-28T21:55:18.035Z,33.7
2022-11-28T22:00:45.668Z,33.5
2022-11-28T22:05:16.788Z,33.3
2022-11-28T22:10:16.793Z,33.2
2022-11-28T22:15:16.726Z,33.5
2022-11-28T22:20:19.817Z,33.4
2022-11-28T22:25:21.065Z,33.3
2022-11-28T22:30:19.829Z,33.2
2022-11-28T22:35:19.827Z,33.2
2022-11-28T22:40:19.842Z,33.4
2022-11-28T22:45:19.850Z,33.3
2022-11-28T22:50:19.854Z,33.3
2022-11-28T22:55:19.829Z,33.1
2022-11-28T23:00:18.034Z,33.4
2022-11-28T23:05:16.908Z,33.3
2022-11-28T23:10:16.836Z,33.2
2022-11-28T23:15:16.869Z,33.2
2022-11-28T23:20:19.862Z,33.1
2022-11-28T23:25:19.826Z,33.0
2022-11-28T23:30:21.050Z,32.9
2022-11-28T23:35:19.890Z,32.9
2022-11-28T23:40:19.834Z,32.8
2022-11-28T23:45:16.871Z,32.3
2022-11-28T23:50:16.851Z,32.3
2022-11-28T23:55:19.860Z,32.2
